Time;durP1;ratioP1;P1;durP2;ratioP2;P2;SDS_P1;SDS_P2;PMS_P1;PMS_P2;Temp;Humidity;BMP_temperature;BMP_pressure;BME280_temperature;BME280_humidity;BME280_pressure;Samples;Min_cycle;Max_cycle;Signal;HPM_P1;HPM_P2
2021/10/02 06:28:20;;;;;;;0.40;0.40;;;;;;;11.52;92.63;98744.16;5080431;23;20042;-73
2021/10/02 06:30:46;;;;;;;0.88;0.88;;;;;;;11.14;93.68;98749.31;4982736;28;20294;-73
2021/10/02 06:33:12;;;;;;;1.00;1.00;;;;;;;11.07;94.56;98741.69;4985687;28;20113;-73
2021/10/02 06:35:37;;;;;;;0.82;0.82;;;;;;;11.17;94.83;98749.25;4983620;28;20113;-73
2021/10/02 06:38:03;;;;;;;0.57;0.57;;;;;;;11.27;94.30;98748.19;4975423;28;20014;-74
2021/10/02 06:40:28;;;;;;;1.50;1.10;;;;;;;11.07;94.68;98754.66;4975033;28;20080;-73
2021/10/02 06:42:53;;;;;;;0.77;0.77;;;;;;;10.99;95.40;98748.75;4978178;28;20022;-73
2021/10/02 06:45:20;;;;;;;0.55;0.55;;;;;;;11.11;94.56;98745.03;5001647;23;20051;-71
2021/10/02 06:47:45;;;;;;;0.90;0.90;;;;;;;11.08;94.71;98742.53;4983375;28;20714;-71
2021/10/02 06:50:10;;;;;;;1.50;1.40;;;;;;;11.24;94.54;98743.06;4977465;28;20110;-71
2021/10/02 06:52:36;;;;;;;0.57;0.57;;;;;;;11.39;93.83;98749.66;4987141;28;20026;-71
2021/10/02 06:55:02;;;;;;;1.08;1.00;;;;;;;11.61;92.46;98756.09;4978032;28;20375;-71
2021/10/02 06:57:27;;;;;;;0.50;0.50;;;;;;;11.62;92.21;98751.75;4961350;28;20026;-72
2021/10/02 06:59:53;;;;;;;0.40;0.40;;;;;;;11.67;91.99;98749.91;4976722;28;20042;-72
2021/10/02 07:02:18;;;;;;;0.93;0.93;;;;;;;11.71;91.40;98751.53;4974733;28;20023;-71
2021/10/02 07:04:45;;;;;;;1.23;1.13;;;;;;;11.92;90.89;98748.47;4974777;28;20019;-71
2021/10/02 07:07:10;;;;;;;0.65;0.65;;;;;;;12.06;89.92;98751.56;4980830;28;20372;-71
2021/10/02 07:09:36;;;;;;;1.27;0.85;;;;;;;12.26;89.27;98750.22;4974503;28;20038;-71
2021/10/02 07:12:02;;;;;;;0.95;0.95;;;;;;;12.25;89.40;98751.13;4974535;28;20066;-71
2021/10/02 07:14:28;;;;;;;1.48;1.38;;;;;;;12.19;89.53;98743.50;4980966;28;20065;-72
2021/10/02 07:16:53;;;;;;;0.80;0.80;;;;;;;12.24;89.02;98746.84;4978307;28;20046;-71
2021/10/02 07:19:18;;;;;;;0.90;0.90;;;;;;;12.44;88.54;98754.97;4988400;28;20077;-72
2021/10/02 07:21:44;;;;;;;2.38;1.60;;;;;;;12.80;86.95;98747.91;4976128;28;20073;-71
2021/10/02 07:24:13;;;;;;;0.55;0.55;;;;;;;12.95;85.93;98751.00;4974638;28;20033;-72
2021/10/02 07:26:39;;;;;;;2.17;1.63;;;;;;;13.14;84.91;98752.16;4975449;28;20027;-77
2021/10/02 07:29:04;;;;;;;0.75;0.75;;;;;;;13.38;84.06;98748.03;4974697;28;20030;-72
2021/10/02 07:31:30;;;;;;;1.25;1.23;;;;;;;13.83;82.67;98737.13;4974886;28;20034;-74
2021/10/02 07:33:55;;;;;;;1.33;1.23;;;;;;;13.73;82.43;98748.69;4974322;28;20076;-70
2021/10/02 07:36:21;;;;;;;4.18;2.60;;;;;;;13.75;82.00;98749.53;4974500;28;20033;-69
2021/10/02 07:38:47;;;;;;;7.53;2.92;;;;;;;13.53;82.86;98755.38;4974448;28;20157;-69
2021/10/02 07:41:14;;;;;;;5.13;2.80;;;;;;;13.53;82.65;98757.97;4974103;28;20102;-71
2021/10/02 07:43:41;;;;;;;2.15;2.05;;;;;;;13.70;81.68;98757.47;4978236;28;20054;-70
2021/10/02 07:46:12;;;;;;;1.70;1.60;;;;;;;13.50;82.57;98750.28;4974302;28;20682;-71
2021/10/02 07:48:40;;;;;;;1.35;1.25;;;;;;;13.72;82.14;98754.81;4976776;28;20041;-71
2021/10/02 07:51:05;;;;;;;0.60;0.60;;;;;;;13.63;82.54;98762.03;4977835;28;20070;-70
2021/10/02 07:53:32;;;;;;;0.50;0.50;;;;;;;13.10;84.63;98760.97;4980814;28;20064;-70
2021/10/02 07:55:59;;;;;;;1.20;1.10;;;;;;;13.00;85.54;98754.31;4974016;28;20019;-70
2021/10/02 07:58:25;;;;;;;1.60;1.48;;;;;;;13.65;83.37;98750.72;4975319;28;20030;-71
2021/10/02 08:00:54;;;;;;;5.38;1.15;;;;;;;14.74;79.86;98738.41;4973790;28;20023;-71
2021/10/02 08:03:20;;;;;;;0.50;0.50;;;;;;;16.03;74.90;98739.63;4974230;28;20146;-70
2021/10/02 08:05:46;;;;;;;1.25;1.15;;;;;;;17.46;67.59;98736.91;4985522;28;20681;-71
2021/10/02 08:08:16;;;;;;;0.93;0.93;;;;;;;19.69;59.55;98716.78;4975511;28;20033;-71
2021/10/02 08:10:41;;;;;;;;;;;;;;;21.15;54.63;98720.44;4985526;28;20053;-71
2021/10/02 08:13:07;;;;;;;1.88;1.30;;;;;;;22.59;49.51;98716.38;4973291;28;19910;-71
2021/10/02 08:15:32;;;;;;;2.67;1.00;;;;;;;23.85;46.71;98714.53;4986206;28;20022;-71
2021/10/02 08:18:04;;;;;;;1.15;0.85;;;;;;;22.51;48.89;98716.06;4973566;28;20034;-72
2021/10/02 08:20:30;;;;;;;0.35;0.35;;;;;;;21.92;50.34;98726.13;4979445;28;20026;-70
2021/10/02 08:22:57;;;;;;;0.90;0.88;;;;;;;24.76;44.54;98719.19;4973256;28;20030;-77
2021/10/02 08:25:25;;;;;;;1.05;0.95;;;;;;;23.37;46.25;98723.34;4974371;28;20034;-72
2021/10/02 08:27:50;;;;;;;1.25;1.25;;;;;;;22.51;48.14;98726.63;4973459;28;20369;-71
2021/10/02 08:30:18;;;;;;;1.60;1.50;;;;;;;22.79;48.98;98723.78;4973083;28;20037;-72
2021/10/02 08:32:43;;;;;;;2.05;0.90;;;;;;;21.90;49.96;98728.00;4973390;28;20022;-72
2021/10/02 08:35:10;;;;;;;0.93;0.93;;;;;;;22.25;50.21;98718.66;4973023;28;20026;-71
2021/10/02 08:37:36;;;;;;;1.25;1.10;;;;;;;23.63;46.84;98709.06;4980773;28;20054;-70
2021/10/02 08:40:05;;;;;;;1.45;1.13;;;;;;;23.24;47.41;98713.63;4973284;28;20153;-72
2021/10/02 08:42:35;;;;;;;0.90;0.88;;;;;;;22.62;48.92;98710.03;4978111;28;20106;-72
2021/10/02 08:45:01;;;;;;;0.57;0.57;;;;;;;23.39;47.10;98708.19;4974093;28;20109;-71
2021/10/02 08:47:27;;;;;;;1.02;0.77;;;;;;;26.39;41.19;98699.81;4974452;28;20066;-71
2021/10/02 08:49:54;;;;;;;0.45;0.45;;;;;;;28.20;37.22;98693.78;4973811;28;20034;-71
2021/10/02 08:52:23;;;;;;;1.40;0.65;;;;;;;29.16;35.87;98692.75;4973398;28;20027;-73
2021/10/02 08:54:50;;;;;;;0.60;0.43;;;;;;;29.59;33.71;98701.94;4973748;28;20031;-72
2021/10/02 08:57:23;;;;;;;2.88;0.93;;;;;;;30.45;32.35;98692.44;4972975;28;20026;-72
2021/10/02 08:59:50;;;;;;;0.40;0.40;;;;;;;28.75;34.66;98697.50;4973128;28;20018;-73
2021/10/02 09:02:16;;;;;;;0.70;0.70;;;;;;;29.43;34.57;98690.06;4972679;28;20062;-72
2021/10/02 09:04:44;;;;;;;0.32;0.32;;;;;;;28.78;34.04;98686.56;4991339;28;20375;-71
2021/10/02 09:07:10;;;;;;;0.75;0.73;;;;;;;30.39;32.25;98674.34;4988238;28;20022;-71
2021/10/02 09:09:35;;;;;;;0.57;0.57;;;;;;;31.10;32.12;98675.13;4986877;28;20257;-70
2021/10/02 09:12:06;;;;;;;0.32;0.30;;;;;;;30.86;30.52;98674.00;4982884;28;20122;-71
2021/10/02 09:14:32;;;;;;;0.20;0.20;;;;;;;28.16;34.22;98671.91;4978985;28;20026;-71
2021/10/02 09:16:58;;;;;;;1.17;0.50;;;;;;;30.93;30.23;98658.97;4985711;28;20045;-71
2021/10/02 09:19:23;;;;;;;0.63;0.60;;;;;;;31.10;28.95;98664.41;4987936;28;20026;-71
2021/10/02 09:21:58;;;;;;;0.10;0.10;;;;;;;31.40;23.54;98655.84;4986178;28;20432;-71
2021/10/02 09:24:28;;;;;;;0.20;0.20;;;;;;;30.05;29.33;98649.31;4985813;28;20559;-71
2021/10/02 09:26:54;;;;;;;0.22;0.22;;;;;;;31.52;28.14;98650.19;4985082;28;20026;-71
2021/10/02 09:29:44;;;;;;;0.73;0.73;;;;;;;31.70;26.07;98645.53;4988542;28;20102;-71
2021/10/02 09:32:15;;;;;;;0.30;0.20;;;;;;;32.78;24.59;98651.53;4980885;28;20416;-71
2021/10/02 09:35:01;;;;;;;0.52;0.20;;;;;;;32.45;24.03;98635.53;4980791;28;20129;-71
2021/10/02 09:37:30;;;;;;;0.40;0.30;;;;;;;33.00;24.25;98642.78;4991599;28;20398;-71
2021/10/02 09:40:19;;;;;;;0.73;0.60;;;;;;;32.52;23.79;98641.03;4987930;28;20550;-72
2021/10/02 09:42:47;;;;;;;0.10;0.10;;;;;;;33.32;22.07;98643.66;4985800;28;20037;-71
2021/10/02 09:45:21;;;;;;;0.20;0.20;;;;;;;32.77;22.82;98636.44;4989939;28;20027;-71
2021/10/02 09:47:53;;;;;;;0.10;0.10;;;;;;;32.45;22.43;98632.03;4982726;28;20019;-71
2021/10/02 09:50:26;;;;;;;0.20;0.20;;;;;;;33.40;22.18;98632.00;4985598;28;20383;-71
2021/10/02 09:52:56;;;;;;;0.30;0.30;;;;;;;34.55;21.07;98632.00;4983102;28;20019;-72
2021/10/02 09:55:27;;;;;;;0.28;0.28;;;;;;;33.31;21.41;98625.84;4987011;28;20054;-72
2021/10/02 09:58:01;;;;;;;6.97;0.43;;;;;;;33.54;21.26;98614.31;4984137;28;20570;-72
2021/10/02 10:00:33;;;;;;;4.63;3.63;;;;;;;32.43;22.67;98621.44;4990980;28;20030;-71
2021/10/02 10:03:02;;;;;;;0.20;0.20;;;;;;;34.42;19.84;98609.22;4989479;28;20029;-72
2021/10/02 10:05:30;;;;;;;;;;;;;;;33.41;20.62;98602.31;4988650;28;20110;-71
2021/10/02 10:08:00;;;;;;;0.10;0.10;;;;;;;32.18;22.25;98596.47;4988404;28;19960;-72
2021/10/02 10:10:31;;;;;;;0.35;0.35;;;;;;;28.72;25.84;98593.81;4978561;28;20117;-70
2021/10/02 10:13:01;;;;;;;0.17;0.17;;;;;;;27.67;27.67;98597.31;4978635;28;20019;-70
2021/10/02 10:15:39;;;;;;;0.25;0.25;;;;;;;27.77;27.94;98589.34;4981155;28;20472;-70
2021/10/02 10:18:09;;;;;;;0.68;0.55;;;;;;;29.86;26.21;98584.34;4979366;28;20026;-71
2021/10/02 10:20:39;;;;;;;0.63;0.63;;;;;;;31.58;24.11;98574.53;4980055;28;20384;-71
2021/10/02 10:23:06;;;;;;;0.40;0.40;;;;;;;30.58;25.22;98576.19;4972519;28;20476;-71
2021/10/02 10:25:32;;;;;;;0.35;0.35;;;;;;;29.13;27.06;98570.28;4973876;28;20026;-71
2021/10/02 10:28:05;;;;;;;0.30;0.30;;;;;;;28.93;28.30;98570.38;4979194;28;20033;-70
2021/10/02 10:30:34;;;;;;;0.55;0.40;;;;;;;30.04;27.37;98559.44;4983502;28;20041;-70
2021/10/02 10:33:09;;;;;;;2.33;0.70;;;;;;;30.85;25.64;98559.09;4981260;28;20427;-70
2021/10/02 10:35:41;;;;;;;0.68;0.68;;;;;;;30.48;26.45;98551.38;4987011;28;20038;-70
2021/10/02 10:38:09;;;;;;;0.20;0.20;;;;;;;31.02;26.01;98541.25;4975127;28;20022;-70
2021/10/02 10:40:36;;;;;;;0.30;0.28;;;;;;;31.19;26.58;98551.00;4979401;28;20517;-70
2021/10/02 10:43:01;;;;;;;2.22;0.55;;;;;;;30.67;26.40;98540.44;4982550;28;20030;-70
2021/10/02 10:45:27;;;;;;;0.52;0.35;;;;;;;31.32;26.19;98548.69;4975215;28;20049;-70
2021/10/02 10:47:53;;;;;;;0.40;0.40;;;;;;;31.88;25.37;98541.72;4979998;28;20501;-70
2021/10/02 10:50:19;;;;;;;0.60;0.60;;;;;;;32.08;25.29;98546.72;4978001;28;20053;-70
2021/10/02 10:52:46;;;;;;;2.80;0.63;;;;;;;30.19;27.26;98541.88;4980824;28;20479;-70
2021/10/02 10:55:22;;;;;;;0.20;0.20;;;;;;;30.48;27.58;98535.34;4984468;28;20031;-70
2021/10/02 10:57:52;;;;;;;0.95;0.63;;;;;;;31.81;26.35;98539.84;4979603;28;20029;-70
2021/10/02 11:00:38;;;;;;;3.30;1.27;;;;;;;32.51;25.17;98534.75;4981290;28;20133;-70
2021/10/02 11:03:04;;;;;;;0.47;0.47;;;;;;;32.08;24.54;98538.69;4975878;28;20368;-70
2021/10/02 11:05:39;;;;;;;1.20;0.45;;;;;;;30.55;27.42;98528.34;4981887;28;20063;-70
2021/10/02 11:08:10;;;;;;;0.32;0.32;;;;;;;31.07;26.63;98520.19;4979262;28;20031;-70
2021/10/02 11:10:41;;;;;;;0.68;0.47;;;;;;;31.75;26.00;98525.28;4980680;28;20429;-70
2021/10/02 11:13:26;;;;;;;0.52;0.32;;;;;;;30.74;26.89;98525.44;4975049;28;20055;-70
2021/10/02 11:15:53;;;;;;;0.50;0.50;;;;;;;32.11;25.53;98519.59;4968026;28;20372;-70
2021/10/02 11:18:45;;;;;;;0.20;0.20;;;;;;;32.44;25.16;98513.13;4981052;28;20025;-70
2021/10/02 11:21:17;;;;;;;0.43;0.43;;;;;;;31.19;26.66;98497.47;4979181;28;20050;-70
2021/10/02 11:24:04;;;;;;;0.40;0.40;;;;;;;29.54;28.44;98503.94;4976594;28;20431;-70
2021/10/02 11:26:40;;;;;;;1.30;0.63;;;;;;;28.86;29.64;98499.91;4978852;28;20113;-70
2021/10/02 11:29:06;;;;;;;0.85;0.85;;;;;;;29.73;28.67;98487.75;4975769;28;20400;-70
2021/10/02 11:31:32;;;;;;;1.50;0.63;;;;;;;30.05;28.98;98486.28;4975122;28;20026;-70
2021/10/02 11:33:59;;;;;;;0.80;0.65;;;;;;;28.99;29.03;98482.75;4976797;28;20266;-70
2021/10/02 11:36:31;;;;;;;0.40;0.40;;;;;;;25.87;33.32;98493.63;4980272;28;20073;-70
2021/10/02 11:39:23;;;;;;;2.33;0.50;;;;;;;28.47;30.69;98483.31;4980408;28;20034;-70
2021/10/02 11:41:53;;;;;;;0.30;0.30;;;;;;;29.51;29.55;98469.53;4974175;28;20030;-70
2021/10/02 11:44:37;;;;;;;0.65;0.65;;;;;;;31.08;27.90;98458.44;4975967;28;20066;-70
2021/10/02 11:47:32;;;;;;;0.10;0.10;;;;;;;31.20;26.88;98456.31;4977694;28;20109;-71
2021/10/02 11:50:06;;;;;;;0.90;0.90;;;;;;;30.05;28.72;98448.88;4978863;28;20089;-70
2021/10/02 11:52:32;;;;;;;0.45;0.40;;;;;;;29.39;29.41;98447.56;4979803;28;20364;-74
2021/10/02 11:55:33;;;;;;;1.45;0.95;;;;;;;29.43;30.75;98441.78;4975844;28;20130;-72
2021/10/02 11:58:10;;;;;;;0.17;0.17;;;;;;;30.46;27.83;98437.41;4975935;28;20033;-74
2021/10/02 12:00:46;;;;;;;0.63;0.55;;;;;;;30.83;26.88;98422.78;4981588;28;20027;-74
2021/10/02 12:03:13;;;;;;;0.47;0.45;;;;;;;29.28;29.59;98429.16;4975267;28;20018;-76
2021/10/02 12:05:43;;;;;;;0.70;0.52;;;;;;;28.36;32.14;98428.38;4981452;28;20094;-75
2021/10/02 12:08:09;;;;;;;0.10;0.10;;;;;;;27.82;32.92;98424.66;4975024;28;20015;-72
2021/10/02 12:11:02;;;;;;;3.42;2.20;;;;;;;27.31;33.36;98415.22;4979876;28;20027;-75
2021/10/02 12:13:39;;;;;;;0.50;0.50;;;;;;;26.35;34.63;98411.47;4979105;28;20527;-74
2021/10/02 12:16:07;;;;;;;0.30;0.30;;;;;;;25.94;35.23;98416.91;4979945;28;20022;-76
2021/10/02 12:18:46;;;;;;;0.40;0.40;;;;;;;25.45;36.38;98407.84;4980566;28;20474;-73
2021/10/02 12:21:23;;;;;;;0.50;0.35;;;;;;;25.68;36.39;98401.41;4978553;28;20483;-73
2021/10/02 12:24:10;;;;;;;0.57;0.57;;;;;;;25.48;36.49;98389.84;4980679;28;20027;-74
2021/10/02 12:26:38;;;;;;;0.25;0.25;;;;;;;25.25;35.63;98383.84;4985355;28;20065;-74
2021/10/02 12:29:05;;;;;;;0.30;0.30;;;;;;;24.98;36.51;98380.81;4980350;28;20057;-74
2021/10/02 12:31:43;;;;;;;0.30;0.30;;;;;;;25.04;37.53;98367.03;4981699;28;20475;-74
2021/10/02 12:34:12;;;;;;;1.58;0.55;;;;;;;24.94;37.89;98368.78;4973456;28;20058;-74
2021/10/02 12:36:42;;;;;;;0.22;0.22;;;;;;;24.62;38.00;98369.66;4983859;28;20022;-74
2021/10/02 12:39:07;;;;;;;0.80;0.60;;;;;;;24.68;38.22;98366.50;4976682;28;20031;-74
2021/10/02 12:41:41;;;;;;;0.30;0.30;;;;;;;24.64;37.53;98367.72;4979129;28;20019;-74
2021/10/02 12:44:22;;;;;;;0.10;0.10;;;;;;;24.28;38.40;98366.25;5024460;23;20051;-75
2021/10/02 12:46:49;;;;;;;0.38;0.38;;;;;;;24.12;39.13;98361.31;4979931;28;20113;-75
2021/10/02 12:49:15;;;;;;;0.40;0.40;;;;;;;23.79;39.43;98355.13;4983849;28;20018;-75
2021/10/02 12:51:41;;;;;;;0.43;0.43;;;;;;;23.85;40.40;98354.63;4982751;28;20018;-75
2021/10/02 12:54:11;;;;;;;0.60;0.60;;;;;;;23.70;40.75;98345.25;4977443;28;20360;-74
2021/10/02 12:57:04;;;;;;;0.63;0.57;;;;;;;23.73;40.72;98345.00;4977093;28;20058;-74
2021/10/02 12:59:45;;;;;;;0.60;0.60;;;;;;;23.43;41.13;98352.66;4970512;28;20121;-74
2021/10/02 13:02:11;;;;;;;0.30;0.30;;;;;;;23.22;41.94;98345.41;4975023;28;20102;-75
2021/10/02 13:04:37;;;;;;;0.85;0.75;;;;;;;23.18;42.83;98343.97;4977184;28;20113;-74
2021/10/02 13:07:04;;;;;;;0.65;0.65;;;;;;;22.97;42.30;98335.03;4974874;28;20018;-74
2021/10/02 13:09:30;;;;;;;1.60;1.10;;;;;;;22.97;42.16;98329.75;4972016;28;20034;-74
2021/10/02 13:12:05;;;;;;;0.55;0.55;;;;;;;23.48;42.57;98324.88;4979035;28;20386;-78
2021/10/02 13:14:36;;;;;;;1.30;0.93;;;;;;;23.39;42.31;98330.88;4981106;28;20356;-77
2021/10/02 13:17:08;;;;;;;0.55;0.55;;;;;;;23.97;41.12;98325.50;4991075;28;20110;-76
2021/10/02 13:19:34;;;;;;;0.75;0.50;;;;;;;24.29;41.19;98314.94;4981642;28;20050;-77
2021/10/02 13:22:16;;;;;;;2.03;0.50;;;;;;;24.52;41.85;98307.81;4984933;28;20472;-77
2021/10/02 13:25:08;;;;;;;1.85;0.68;;;;;;;24.58;39.84;98308.13;4976874;28;20053;-77
2021/10/02 13:27:37;;;;;;;0.22;0.22;;;;;;;24.54;40.89;98304.03;4982290;28;20101;-77
2021/10/02 13:30:19;;;;;;;0.68;0.68;;;;;;;24.59;40.11;98307.16;4972787;28;20026;-77
2021/10/02 13:33:05;;;;;;;0.35;0.35;;;;;;;24.66;39.90;98294.25;4974998;28;20022;-77
2021/10/02 13:35:36;;;;;;;0.63;0.63;;;;;;;24.88;39.95;98294.13;4986769;28;20064;-77
2021/10/02 13:38:03;;;;;;;0.85;0.60;;;;;;;25.07;40.50;98297.91;4979003;28;20315;-77
2021/10/02 13:40:35;;;;;;;0.57;0.47;;;;;;;24.72;40.05;98288.44;4978617;28;20387;-77
2021/10/02 13:43:02;;;;;;;0.45;0.45;;;;;;;24.80;40.13;98283.34;4982181;28;20038;-77
2021/10/02 13:45:52;;;;;;;5.70;0.90;;;;;;;24.51;40.16;98287.56;4977363;28;20038;-77
2021/10/02 13:48:24;;;;;;;0.30;0.30;;;;;;;24.64;39.86;98274.16;4973075;28;20047;-77
2021/10/02 13:50:49;;;;;;;0.47;0.45;;;;;;;24.65;39.23;98276.66;4978432;28;20465;-77
2021/10/02 13:53:16;;;;;;;0.75;0.57;;;;;;;24.53;40.80;98280.34;4975191;28;20098;-77
2021/10/02 13:55:42;;;;;;;0.38;0.38;;;;;;;24.32;40.68;98277.59;4987179;28;20104;-77
2021/10/02 13:58:09;;;;;;;0.77;0.57;;;;;;;24.27;40.44;98275.38;4976237;28;20070;-77
2021/10/02 14:00:35;;;;;;;0.47;0.47;;;;;;;24.27;41.26;98272.72;4984784;28;20106;-77
2021/10/02 14:03:01;;;;;;;0.20;0.20;;;;;;;23.90;41.51;98271.38;4981854;28;20510;-77
2021/10/02 14:05:27;;;;;;;0.70;0.50;;;;;;;24.14;41.27;98266.75;4980970;28;20022;-77
2021/10/02 14:07:54;;;;;;;0.68;0.50;;;;;;;23.96;41.86;98260.28;4978476;28;20129;-77
2021/10/02 14:10:20;;;;;;;0.40;0.40;;;;;;;23.61;41.72;98256.00;4983963;28;20047;-77
2021/10/02 14:12:46;;;;;;;0.43;0.43;;;;;;;23.41;40.24;98254.09;4981739;28;20488;-77
2021/10/02 14:15:12;;;;;;;0.70;0.70;;;;;;;23.41;41.50;98256.75;4981472;28;20027;-77
2021/10/02 14:17:38;;;;;;;0.52;0.52;;;;;;;23.72;40.86;98250.72;4984070;28;20040;-77
2021/10/02 14:20:07;;;;;;;0.65;0.63;;;;;;;23.74;41.96;98248.81;4978464;28;20050;-77
2021/10/02 14:22:32;;;;;;;0.25;0.25;;;;;;;23.96;40.44;98247.06;4982380;28;20404;-77
2021/10/02 14:24:58;;;;;;;0.20;0.20;;;;;;;23.76;40.19;98238.94;4975521;28;20030;-77
2021/10/02 14:27:24;;;;;;;0.45;0.45;;;;;;;23.89;40.07;98232.66;4981207;28;20041;-77
2021/10/02 14:29:50;;;;;;;0.40;0.40;;;;;;;24.03;40.52;98224.41;4981522;28;20029;-77
2021/10/02 14:32:16;;;;;;;0.20;0.20;;;;;;;24.06;39.70;98229.47;4980893;28;20035;-77
2021/10/02 14:34:42;;;;;;;0.35;0.30;;;;;;;24.09;39.63;98226.56;4984086;28;20018;-77
2021/10/02 14:37:08;;;;;;;0.38;0.38;;;;;;;24.00;40.03;98222.03;4986996;28;20153;-77
2021/10/02 14:39:33;;;;;;;0.85;0.20;;;;;;;24.25;39.33;98213.72;4981926;28;20022;-77
2021/10/02 14:41:59;;;;;;;2.17;1.45;;;;;;;24.30;39.92;98206.25;4983664;28;20015;-77
2021/10/02 14:44:24;;;;;;;0.68;0.68;;;;;;;24.24;39.71;98211.22;4979912;28;20027;-77
2021/10/02 14:46:50;;;;;;;0.88;0.60;;;;;;;24.21;40.07;98207.00;4983616;28;20031;-77
2021/10/02 14:49:15;;;;;;;0.20;0.20;;;;;;;24.03;40.67;98208.53;4982779;28;20105;-77
2021/10/02 14:51:43;;;;;;;0.57;0.57;;;;;;;23.87;39.79;98200.16;4977342;28;20032;-77
2021/10/02 14:54:08;;;;;;;0.30;0.30;;;;;;;23.78;40.81;98189.38;4986719;28;20048;-77
2021/10/02 14:56:35;;;;;;;0.40;0.40;;;;;;;23.75;40.14;98189.63;4979703;28;20468;-77
2021/10/02 14:59:01;;;;;;;0.30;0.30;;;;;;;23.68;41.46;98193.72;4985360;28;20367;-77
2021/10/02 15:01:27;;;;;;;0.17;0.17;;;;;;;23.64;41.73;98187.00;4976707;28;20459;-77
2021/10/02 15:03:53;;;;;;;0.82;0.50;;;;;;;23.76;40.58;98179.88;4971939;28;20126;-77
2021/10/02 15:06:19;;;;;;;2.97;0.32;;;;;;;23.56;41.31;98179.66;4981716;28;20097;-77
2021/10/02 15:08:44;;;;;;;0.17;0.13;;;;;;;23.34;41.29;98177.88;4983265;28;20034;-77
2021/10/02 15:11:10;;;;;;;0.50;0.50;;;;;;;23.28;41.38;98165.16;4974751;28;20026;-77
2021/10/02 15:13:37;;;;;;;1.88;0.43;;;;;;;23.25;41.78;98165.41;4980505;28;20105;-77
2021/10/02 15:16:03;;;;;;;0.68;0.68;;;;;;;23.20;41.23;98151.72;4985805;28;20399;-77
2021/10/02 15:18:31;;;;;;;3.83;1.20;;;;;;;23.15;41.69;98148.59;4983805;28;20085;-77
2021/10/02 15:21:08;;;;;;;0.57;0.57;;;;;;;23.16;42.55;98150.31;4982988;28;20014;-77
2021/10/02 15:23:37;;;;;;;0.10;0.10;;;;;;;23.01;42.37;98146.19;4977347;28;20055;-77
2021/10/02 15:26:06;;;;;;;0.80;0.80;;;;;;;22.95;42.70;98141.41;4980844;28;20357;-77
2021/10/02 15:28:42;;;;;;;0.65;0.60;;;;;;;22.83;43.17;98143.19;4979963;28;20448;-77
2021/10/02 15:31:07;;;;;;;0.30;0.30;;;;;;;22.81;43.42;98135.38;4983611;28;20100;-77
2021/10/02 15:33:34;;;;;;;0.60;0.50;;;;;;;22.81;43.74;98139.81;4978478;28;20450;-77
2021/10/02 15:36:01;;;;;;;0.47;0.47;;;;;;;22.74;44.29;98128.91;4983709;28;20018;-77
2021/10/02 15:38:27;;;;;;;0.73;0.70;;;;;;;22.55;44.92;98131.28;4976604;28;20023;-77
2021/10/02 15:40:53;;;;;;;0.45;0.45;;;;;;;22.42;45.44;98122.63;4978286;28;20464;-77
2021/10/02 15:43:18;;;;;;;0.77;0.77;;;;;;;22.41;45.25;98121.78;4983713;28;20553;-77
2021/10/02 15:45:46;;;;;;;0.35;0.35;;;;;;;22.39;45.68;98122.88;4986526;28;20057;-77
2021/10/02 15:48:12;;;;;;;1.52;1.08;;;;;;;22.24;46.27;98119.59;4975556;28;20436;-77
2021/10/02 15:50:45;;;;;;;0.88;0.82;;;;;;;22.33;46.12;98116.25;4977912;28;20122;-77
2021/10/02 15:53:10;;;;;;;1.02;0.77;;;;;;;22.14;46.49;98108.88;4984200;28;20023;-77
2021/10/02 15:55:38;;;;;;;0.60;0.60;;;;;;;21.98;46.76;98113.63;4974030;28;20034;-77
2021/10/02 15:58:05;;;;;;;0.80;0.75;;;;;;;21.80;47.39;98116.66;4974204;28;20490;-77
2021/10/02 16:00:33;;;;;;;0.52;0.52;;;;;;;21.76;47.38;98119.66;4980066;28;20034;-77
2021/10/02 16:03:04;;;;;;;0.30;0.30;;;;;;;21.73;47.43;98115.44;4988834;28;20106;-77
2021/10/02 16:05:35;;;;;;;0.73;0.50;;;;;;;21.63;47.64;98114.44;4977833;28;20121;-77
2021/10/02 16:08:02;;;;;;;0.75;0.75;;;;;;;21.61;48.16;98116.34;4980842;28;20026;-77
2021/10/02 16:10:28;;;;;;;0.32;0.32;;;;;;;21.59;48.23;98113.00;4978388;28;20022;-78
2021/10/02 16:12:59;;;;;;;0.30;0.30;;;;;;;21.34;48.92;98108.69;4954229;28;20090;-77
2021/10/02 16:15:28;;;;;;;1.30;0.82;;;;;;;21.34;49.42;98115.75;4978506;28;20014;-78
2021/10/02 16:17:55;;;;;;;1.63;0.55;;;;;;;21.31;49.47;98116.78;4976374;28;20370;-77
2021/10/02 16:20:21;;;;;;;0.77;0.77;;;;;;;21.21;50.26;98113.94;4977181;28;20036;-77
2021/10/02 16:22:50;;;;;;;1.42;1.33;;;;;;;21.05;51.21;98114.22;4981856;28;20019;-77
2021/10/02 16:25:16;;;;;;;;;;;;;;;20.78;53.05;98111.72;4978828;28;20587;-76
2021/10/02 16:27:41;;;;;;;0.85;0.70;;;;;;;20.67;53.26;98114.28;4980139;28;20008;-77
2021/10/02 16:30:08;;;;;;;3.65;1.00;;;;;;;20.50;54.51;98122.50;4974459;28;20029;-77
2021/10/02 16:32:35;;;;;;;0.70;0.70;;;;;;;20.35;55.63;98120.88;4975748;28;20019;-78
2021/10/02 16:35:00;;;;;;;0.77;0.77;;;;;;;20.17;55.86;98121.22;4979030;28;20022;-73
2021/10/02 16:37:26;;;;;;;0.55;0.55;;;;;;;20.07;56.13;98114.88;4975721;28;20102;-73
2021/10/02 16:39:52;;;;;;;0.73;0.73;;;;;;;19.95;56.13;98116.53;4973261;28;20554;-74
2021/10/02 16:42:17;;;;;;;0.40;0.40;;;;;;;19.87;56.55;98107.47;4975576;28;20030;-75
2021/10/02 16:44:43;;;;;;;1.55;0.82;;;;;;;19.77;56.98;98107.22;4989149;28;20548;-74
2021/10/02 16:47:08;;;;;;;0.40;0.35;;;;;;;19.71;57.25;98111.09;4981065;28;20035;-76
2021/10/02 16:49:34;;;;;;;0.85;0.85;;;;;;;19.60;57.49;98116.25;4982863;28;20498;-73
2021/10/02 16:52:00;;;;;;;0.95;0.95;;;;;;;19.46;58.58;98100.50;4973415;28;20031;-76
2021/10/02 16:54:27;;;;;;;0.85;0.85;;;;;;;19.33;59.34;98107.47;4981214;28;20018;-76
2021/10/02 16:56:52;;;;;;;3.05;0.60;;;;;;;19.29;59.45;98105.97;4979830;28;20026;-76
2021/10/02 16:59:17;;;;;;;0.90;0.80;;;;;;;19.17;59.98;98097.94;4979655;28;20049;-75
2021/10/02 17:01:43;;;;;;;0.43;0.43;;;;;;;19.07;60.52;98107.34;4979051;28;20076;-76
2021/10/02 17:04:08;;;;;;;0.80;0.77;;;;;;;18.98;60.39;98092.19;4975711;28;20027;-76
2021/10/02 17:06:33;;;;;;;1.50;0.93;;;;;;;18.92;60.87;98092.56;4978934;28;20117;-76
2021/10/02 17:08:59;;;;;;;0.30;0.30;;;;;;;18.83;61.37;98087.91;4978069;28;20025;-76
2021/10/02 17:11:26;;;;;;;0.80;0.80;;;;;;;18.68;62.48;98090.53;4982649;28;20027;-76
2021/10/02 17:13:51;;;;;;;0.68;0.68;;;;;;;18.53;63.30;98080.97;4977703;28;20085;-73
2021/10/02 17:16:16;;;;;;;1.58;1.40;;;;;;;18.46;64.08;98079.63;4981675;28;20090;-73
2021/10/02 17:18:42;;;;;;;0.60;0.60;;;;;;;18.38;64.38;98080.13;4979172;28;20027;-73
2021/10/02 17:21:07;;;;;;;0.35;0.35;;;;;;;18.18;65.90;98075.22;4983315;28;20025;-74
2021/10/02 17:23:35;;;;;;;2.85;1.10;;;;;;;17.91;67.23;98077.72;4976647;28;20361;-73
2021/10/02 17:26:01;;;;;;;1.02;0.68;;;;;;;17.90;68.04;98083.91;4979634;28;20103;-73
2021/10/02 17:28:26;;;;;;;1.00;0.93;;;;;;;17.82;68.20;98075.63;4976126;28;20547;-74
2021/10/02 17:30:52;;;;;;;1.35;1.25;;;;;;;17.72;68.97;98078.75;4984298;28;20027;-73
2021/10/02 17:33:17;;;;;;;0.75;0.75;;;;;;;17.63;68.41;98079.28;4983935;28;20029;-74
2021/10/02 17:35:43;;;;;;;0.90;0.77;;;;;;;17.58;69.05;98070.84;4984987;28;20031;-73
2021/10/02 17:38:08;;;;;;;0.85;0.85;;;;;;;17.54;69.02;98071.13;4988699;28;20034;-73
2021/10/02 17:40:34;;;;;;;0.45;0.45;;;;;;;17.46;69.13;98074.19;4986969;28;20388;-73
2021/10/02 17:43:00;;;;;;;0.80;0.80;;;;;;;17.50;68.42;98073.06;4981776;28;20057;-73
2021/10/02 17:45:26;;;;;;;0.70;0.70;;;;;;;17.50;67.61;98077.47;4982538;28;20444;-73
2021/10/02 17:48:00;;;;;;;0.60;0.60;;;;;;;17.45;67.86;98072.47;4977919;28;20029;-73
2021/10/02 17:50:27;;;;;;;0.28;0.28;;;;;;;17.42;67.90;98081.38;4982910;28;20053;-72
2021/10/02 17:52:53;;;;;;;1.05;0.65;;;;;;;17.32;67.75;98084.59;4976734;28;20015;-72
2021/10/02 17:55:19;;;;;;;0.82;0.82;;;;;;;17.23;68.20;98095.59;4978760;28;20231;-72
2021/10/02 17:57:45;;;;;;;0.75;0.75;;;;;;;17.16;68.47;98090.72;4987655;28;20027;-72
2021/10/02 18:00:14;;;;;;;0.45;0.45;;;;;;;17.10;68.58;98080.56;4977794;28;20073;-72
2021/10/02 18:02:40;;;;;;;0.93;0.77;;;;;;;17.04;68.88;98080.91;4982661;28;20026;-72
2021/10/02 18:05:08;;;;;;;0.50;0.50;;;;;;;17.06;68.43;98081.66;4978528;28;20031;-72
2021/10/02 18:07:33;;;;;;;0.20;0.20;;;;;;;17.09;68.65;98088.50;4988948;28;20030;-72
2021/10/02 18:09:59;;;;;;;2.30;1.27;;;;;;;17.04;69.01;98091.38;4982713;28;20030;-72